Time;durP1;ratioP1;P1;durP2;ratioP2;P2;SDS_P1;SDS_P2;PMS_P1;PMS_P2;Temp;Humidity;BMP_temperature;BMP_pressure;BME280_temperature;BME280_humidity;BME280_pressure;Samples;Min_cycle;Max_cycle;Signal;HPM_P1;HPM_P2
2022/06/04 00:02:06;;;;;;;13.15;3.50;;;10.80;99.90;;;;;;5086523;28;20579;-60
2022/06/04 00:04:32;;;;;;;6.55;2.95;;;10.80;99.90;;;;;;5056393;28;20325;-68
2022/06/04 00:06:58;;;;;;;9.60;3.10;;;10.80;99.90;;;;;;5070475;28;20102;-59
2022/06/04 00:09:27;;;;;;;25.13;4.15;;;10.80;99.90;;;;;;5088394;28;20123;-60
2022/06/04 00:17:23;;;;;;;8.82;2.90;;;10.80;99.90;;;;;;5036864;28;20044;-60
2022/06/04 00:19:50;;;;;;;13.90;3.40;;;10.80;99.90;;;;;;5086589;28;20474;-61
2022/06/04 00:22:16;;;;;;;7.53;3.78;;;10.90;99.90;;;;;;5083236;28;20457;-60
2022/06/04 00:24:43;;;;;;;12.73;3.70;;;10.80;99.90;;;;;;5053215;28;20040;-58
2022/06/04 00:27:18;;;;;;;15.15;3.55;;;10.80;99.90;;;;;;5070192;28;20047;-66
2022/06/04 00:29:44;;;;;;;10.18;3.97;;;10.80;99.90;;;;;;5069884;28;20052;-66
2022/06/04 00:32:10;;;;;;;14.20;4.10;;;10.70;99.90;;;;;;5069903;28;20054;-68
2022/06/04 00:34:36;;;;;;;17.83;4.40;;;10.70;99.90;;;;;;5087849;28;20067;-68
2022/06/04 00:37:02;;;;;;;9.05;3.72;;;10.70;99.90;;;;;;5069765;28;20044;-62
2022/06/04 00:39:28;;;;;;;19.27;4.68;;;10.70;99.90;;;;;;5069880;28;20904;-64
2022/06/04 00:42:14;;;;;;;11.70;4.60;;;10.70;99.90;;;;;;5069982;28;20569;-61
2022/06/04 00:45:17;;;;;;;9.70;4.25;;;10.70;99.90;;;;;;5087714;28;20051;-57
2022/06/04 00:47:43;;;;;;;7.22;4.07;;;10.60;99.90;;;;;;5059505;28;20048;-55
2022/06/04 00:50:09;;;;;;;12.07;4.47;;;10.60;99.90;;;;;;5087266;28;20055;-61
2022/06/04 00:52:36;;;;;;;15.35;4.95;;;10.60;99.90;;;;;;5087477;28;20097;-58
2022/06/04 00:55:05;;;;;;;10.98;5.30;;;10.50;99.90;;;;;;5088366;28;20044;-56
2022/06/04 00:57:49;;;;;;;15.25;5.30;;;10.60;99.90;;;;;;5087159;28;20036;-62
2022/06/04 01:00:24;;;;;;;17.75;5.32;;;10.50;99.90;;;;;;5068744;28;20056;-62
2022/06/04 01:03:08;;;;;;;10.88;5.20;;;10.60;99.90;;;;;;5069215;28;20172;-60
2022/06/04 01:06:08;;;;;;;12.05;4.82;;;10.50;99.90;;;;;;5087228;28;20604;-57
2022/06/04 01:08:52;;;;;;;11.88;5.30;;;10.60;99.90;;;;;;5069200;28;20533;-59
2022/06/04 01:11:17;;;;;;;12.18;5.00;;;10.60;99.90;;;;;;5055651;28;20056;-61
2022/06/04 01:13:52;;;;;;;12.15;4.97;;;10.60;99.90;;;;;;5087642;28;20517;-58
2022/06/04 01:16:29;;;;;;;16.13;4.90;;;10.60;99.90;;;;;;5086858;28;20052;-66
2022/06/04 01:19:01;;;;;;;9.75;4.40;;;10.60;99.90;;;;;;5087464;28;20116;-53
2022/06/04 01:21:42;;;;;;;13.02;5.03;;;10.60;99.90;;;;;;5054823;28;20074;-54
2022/06/04 01:24:29;;;;;;;17.80;5.65;;;10.60;99.90;;;;;;5068792;28;20433;-64
2022/06/04 01:27:27;;;;;;;15.68;5.25;;;10.60;99.90;;;;;;5069655;28;20044;-58
2022/06/04 01:29:59;;;;;;;9.23;5.00;;;10.60;99.90;;;;;;5087069;28;20162;-63
2022/06/04 01:32:34;;;;;;;18.73;5.47;;;10.60;99.90;;;;;;5086898;28;20054;-59
2022/06/04 01:35:18;;;;;;;13.63;5.00;;;10.60;99.90;;;;;;5086756;28;20387;-63
2022/06/04 01:37:53;;;;;;;13.95;4.95;;;10.60;99.90;;;;;;5068201;28;20044;-62
2022/06/04 01:43:17;;;;;;;17.38;5.40;;;10.60;99.90;;;;;;5087437;28;20044;-60
2022/06/04 01:45:45;;;;;;;17.33;4.63;;;10.60;99.90;;;;;;5068608;28;20452;-58
2022/06/04 01:48:13;;;;;;;9.52;4.20;;;10.60;99.90;;;;;;5064911;28;20505;-65
2022/06/04 01:50:49;;;;;;;11.70;4.47;;;10.60;99.90;;;;;;5086850;28;20036;-58
2022/06/04 01:53:18;;;;;;;14.27;4.50;;;10.50;99.90;;;;;;5087095;28;20064;-67
2022/06/04 01:56:16;;;;;;;12.10;4.40;;;10.60;99.90;;;;;;5085542;28;20122;-60
2022/06/04 01:59:09;;;;;;;10.60;4.30;;;10.60;99.90;;;;;;5042240;28;20779;-61
2022/06/04 02:01:37;;;;;;;10.68;4.03;;;10.60;99.90;;;;;;5076402;28;20060;-60
2022/06/04 02:04:07;;;;;;;8.93;3.83;;;10.60;99.90;;;;;;5067588;28;20473;-60
2022/06/04 02:06:42;;;;;;;9.68;3.97;;;10.60;99.90;;;;;;5068091;28;20632;-62
2022/06/04 02:09:15;;;;;;;8.85;3.55;;;10.60;99.90;;;;;;5073630;28;20052;-60
2022/06/04 02:11:49;;;;;;;15.95;4.13;;;10.60;99.90;;;;;;5050808;28;20060;-63
2022/06/04 02:14:15;;;;;;;8.40;3.95;;;10.60;99.90;;;;;;5069101;28;20498;-60
2022/06/04 02:16:47;;;;;;;9.70;3.95;;;10.60;99.90;;;;;;5049550;28;20100;-62
2022/06/04 02:19:13;;;;;;;9.35;3.58;;;10.60;99.90;;;;;;5068942;28;20060;-61
2022/06/04 02:21:40;;;;;;;9.15;3.50;;;10.50;99.90;;;;;;5084660;28;20115;-61
2022/06/04 02:24:07;;;;;;;9.95;3.53;;;10.50;99.90;;;;;;5068884;28;20075;-65
2022/06/04 02:26:41;;;;;;;7.53;3.22;;;10.50;99.90;;;;;;5067584;28;20097;-61
2022/06/04 02:29:07;;;;;;;12.77;3.35;;;10.50;99.90;;;;;;5068550;28;20048;-64
2022/06/04 02:31:39;;;;;;;9.15;3.45;;;10.50;99.90;;;;;;5057749;28;20048;-63
2022/06/04 02:34:14;;;;;;;8.48;3.10;;;10.50;99.90;;;;;;5068232;28;20058;-65
2022/06/04 02:36:46;;;;;;;10.13;3.30;;;10.50;99.90;;;;;;5068031;28;20409;-58
2022/06/04 02:39:32;;;;;;;11.07;3.17;;;10.40;99.90;;;;;;5068388;28;20044;-59
2022/06/04 02:42:10;;;;;;;10.60;3.25;;;10.40;99.90;;;;;;5066262;28;20147;-58
2022/06/04 02:45:04;;;;;;;4.95;2.72;;;10.40;99.90;;;;;;5068232;28;20044;-61
2022/06/04 02:47:56;;;;;;;7.20;2.78;;;10.40;99.90;;;;;;5067247;28;20494;-61
2022/06/04 02:50:33;;;;;;;9.98;3.42;;;10.40;99.90;;;;;;5044252;28;20567;-61
2022/06/04 02:53:01;;;;;;;10.75;3.47;;;10.40;99.90;;;;;;5084868;28;20063;-60
2022/06/04 02:55:31;;;;;;;5.03;2.83;;;10.40;99.90;;;;;;5068159;28;20394;-58
2022/06/04 02:57:59;;;;;;;;;;;10.40;99.90;;;;;;5067726;28;20091;-60
2022/06/04 03:00:27;;;;;;;8.80;3.05;;;10.40;99.90;;;;;;5067070;28;20370;-58
2022/06/04 03:02:53;;;;;;;9.45;3.15;;;10.40;99.90;;;;;;5067667;28;20598;-67
2022/06/04 03:05:24;;;;;;;12.05;3.38;;;10.40;99.90;;;;;;5067919;28;20040;-64
2022/06/04 03:07:54;;;;;;;9.48;2.80;;;10.40;99.90;;;;;;5067383;28;20040;-59
2022/06/04 03:10:25;;;;;;;;;;;10.40;99.90;;;;;;5067252;28;20055;-59
2022/06/04 03:12:51;;;;;;;4.32;2.42;;;10.40;99.90;;;;;;5067254;28;19927;-60
2022/06/04 03:15:17;;;;;;;7.18;3.13;;;10.40;99.90;;;;;;5068323;28;20052;-68
2022/06/04 03:17:45;;;;;;;9.32;3.63;;;10.30;99.90;;;;;;5085618;28;20036;-59
2022/06/04 03:20:16;;;;;;;5.25;2.50;;;10.30;99.90;;;;;;5084368;28;20056;-59
2022/06/04 03:22:42;;;;;;;8.10;3.08;;;10.30;99.90;;;;;;5076474;28;20483;-59
2022/06/04 03:25:08;;;;;;;4.68;2.65;;;10.40;99.90;;;;;;5089250;28;20056;-58
2022/06/04 03:27:34;;;;;;;3.20;2.65;;;10.40;99.90;;;;;;5089191;28;20081;-62
2022/06/04 03:30:00;;;;;;;6.68;3.60;;;10.40;99.90;;;;;;5071667;28;20044;-58
2022/06/04 03:32:26;;;;;;;7.32;2.83;;;10.40;99.90;;;;;;5055288;28;20375;-58
2022/06/04 03:34:52;;;;;;;6.72;2.53;;;10.40;99.90;;;;;;5071311;28;20456;-62
2022/06/04 03:37:18;;;;;;;4.72;2.45;;;10.50;99.90;;;;;;5041013;28;20049;-61
2022/06/04 03:39:43;;;;;;;5.95;2.85;;;10.50;99.90;;;;;;5070255;28;20036;-60
2022/06/04 03:42:09;;;;;;;6.55;2.92;;;10.50;99.90;;;;;;5089597;28;20130;-61
2022/06/04 03:44:35;;;;;;;9.20;2.88;;;10.50;99.90;;;;;;5071029;28;20086;-65
2022/06/04 03:47:01;;;;;;;5.60;2.65;;;10.50;99.90;;;;;;5071401;28;20063;-66
2022/06/04 03:49:27;;;;;;;9.93;2.95;;;10.50;99.90;;;;;;5059647;28;20051;-59
2022/06/04 03:51:52;;;;;;;9.70;3.30;;;10.50;99.90;;;;;;5087452;28;20572;-64
2022/06/04 03:54:52;;;;;;;4.20;2.83;;;10.50;99.90;;;;;;5071206;28;20047;-64
2022/06/04 03:59:52;;;;;;;4.95;2.88;;;10.50;99.90;;;;;;5089158;28;20468;-67
2022/06/04 04:02:18;;;;;;;8.52;2.58;;;10.60;99.90;;;;;;5089789;28;20395;-63
2022/06/04 04:04:43;;;;;;;7.57;2.55;;;10.60;99.90;;;;;;5071199;28;20101;-62
2022/06/04 04:07:09;;;;;;;20.38;3.50;;;10.60;99.90;;;;;;5089317;28;20486;-61
2022/06/04 04:09:35;;;;;;;7.82;2.83;;;10.60;99.90;;;;;;5089225;28;20044;-57
2022/06/04 04:12:01;;;;;;;4.70;3.03;;;10.60;99.90;;;;;;5070574;28;20055;-61
2022/06/04 04:14:27;;;;;;;5.30;2.65;;;10.60;99.90;;;;;;5070993;28;20052;-60
2022/06/04 04:16:53;;;;;;;8.90;3.00;;;10.50;99.90;;;;;;5088792;28;20094;-61
2022/06/04 04:19:18;;;;;;;6.47;3.22;;;10.60;99.90;;;;;;5070904;28;20588;-61
2022/06/04 04:21:44;;;;;;;7.50;3.00;;;10.60;99.90;;;;;;5088716;28;20098;-58
2022/06/04 04:24:10;;;;;;;5.95;3.30;;;10.60;99.90;;;;;;5071096;28;20059;-61
2022/06/04 04:26:36;;;;;;;6.20;3.00;;;10.60;99.90;;;;;;5054197;28;20040;-60
2022/06/04 04:29:01;;;;;;;4.95;2.80;;;10.60;99.90;;;;;;5088790;28;20051;-66
2022/06/04 04:31:27;;;;;;;5.43;3.08;;;10.60;99.90;;;;;;5037404;28;20118;-58
2022/06/04 04:33:53;;;;;;;5.75;2.85;;;10.60;99.90;;;;;;5087240;28;20051;-68
2022/06/04 04:36:18;;;;;;;4.63;3.20;;;10.70;99.90;;;;;;5088446;28;20549;-65
2022/06/04 04:38:44;;;;;;;4.25;2.83;;;10.70;99.90;;;;;;5088091;28;20039;-66
2022/06/04 04:41:13;;;;;;;5.70;3.45;;;10.70;99.90;;;;;;5070825;28;20048;-58
2022/06/04 04:43:40;;;;;;;8.75;3.90;;;10.80;99.90;;;;;;5053966;28;20040;-58
2022/06/04 04:46:08;;;;;;;4.72;2.80;;;10.90;99.90;;;;;;5037781;28;20082;-60
2022/06/04 04:48:34;;;;;;;7.95;3.30;;;10.90;99.90;;;;;;5070173;28;20090;-61
2022/06/04 04:51:00;;;;;;;7.78;2.83;;;10.90;99.90;;;;;;5070012;28;20080;-63
2022/06/04 04:53:26;;;;;;;6.95;3.30;;;11.00;99.90;;;;;;5069792;28;20097;-59
2022/06/04 04:55:54;;;;;;;5.38;3.33;;;11.00;99.90;;;;;;5069640;28;20060;-61
2022/06/04 04:58:20;;;;;;;7.60;3.00;;;11.10;99.90;;;;;;5088543;28;20048;-59
2022/06/04 05:00:46;;;;;;;5.07;2.85;;;11.20;99.90;;;;;;5069689;28;20513;-68
2022/06/04 05:03:12;;;;;;;4.95;3.00;;;11.30;99.90;;;;;;5088482;28;20055;-61
2022/06/04 05:05:38;;;;;;;8.15;3.25;;;11.60;99.90;;;;;;5070068;28;20051;-62
2022/06/04 05:08:04;;;;;;;4.80;3.00;;;11.90;99.90;;;;;;5087774;28;20032;-58
2022/06/04 05:10:30;;;;;;;4.95;2.97;;;12.10;99.90;;;;;;5069605;28;20044;-58
2022/06/04 05:12:57;;;;;;;5.28;3.30;;;12.00;99.90;;;;;;5069059;28;20101;-57
2022/06/04 05:15:23;;;;;;;6.38;3.72;;;11.80;99.90;;;;;;5088295;28;20040;-58
2022/06/04 05:17:49;;;;;;;6.65;3.20;;;11.70;99.90;;;;;;5069049;28;20048;-68
2022/06/04 05:20:15;;;;;;;6.63;3.38;;;11.60;99.90;;;;;;5070211;28;20138;-61
2022/06/04 05:22:41;;;;;;;7.07;3.10;;;11.60;99.90;;;;;;5087529;28;20075;-62
2022/06/04 05:25:08;;;;;;;4.13;3.00;;;11.60;99.90;;;;;;5070199;28;20048;-58
2022/06/04 05:27:34;;;;;;;5.75;3.22;;;11.70;99.90;;;;;;5069615;28;20048;-64
2022/06/04 05:29:59;;;;;;;6.68;3.53;;;11.90;99.90;;;;;;5080666;28;20117;-56
2022/06/04 05:32:25;;;;;;;6.55;3.28;;;12.00;99.90;;;;;;5087479;28;20040;-59
2022/06/04 05:34:51;;;;;;;8.35;3.58;;;12.00;99.90;;;;;;5068763;28;20705;-62
2022/06/04 05:37:17;;;;;;;4.43;3.38;;;12.00;99.90;;;;;;5069784;28;20534;-65
2022/06/04 05:39:43;;;;;;;7.05;3.15;;;12.10;99.90;;;;;;5068885;28;20114;-68
2022/06/04 05:42:10;;;;;;;9.45;3.78;;;12.40;99.90;;;;;;5070058;28;20048;-65
2022/06/04 05:44:36;;;;;;;6.32;3.22;;;12.50;99.90;;;;;;5069289;28;20073;-58
2022/06/04 05:47:07;;;;;;;3.72;3.17;;;12.40;99.90;;;;;;5069356;28;20051;-58
2022/06/04 05:49:33;;;;;;;11.20;3.80;;;12.30;99.90;;;;;;5052304;28;20051;-64
2022/06/04 05:51:59;;;;;;;5.82;3.92;;;12.20;99.90;;;;;;5068767;28;20060;-64
2022/06/04 05:54:24;;;;;;;6.65;3.50;;;12.30;99.90;;;;;;5087393;28;20575;-57
2022/06/04 05:56:51;;;;;;;4.90;3.72;;;12.30;99.90;;;;;;5086450;28;20505;-56
2022/06/04 05:59:20;;;;;;;4.70;3.35;;;12.30;99.90;;;;;;5069173;28;20040;-64
2022/06/04 06:01:53;;;;;;;10.63;3.78;;;12.30;99.90;;;;;;5086572;28;20217;-62
2022/06/04 06:04:21;;;;;;;7.63;4.63;;;12.40;99.90;;;;;;5087022;28;20040;-61
2022/06/04 06:06:49;;;;;;;5.80;3.92;;;12.40;99.90;;;;;;5086256;28;20158;-65
2022/06/04 06:09:17;;;;;;;5.25;3.60;;;12.50;99.90;;;;;;5068774;28;20035;-61
2022/06/04 06:11:45;;;;;;;6.82;3.70;;;12.50;99.90;;;;;;5087190;28;20040;-60
2022/06/04 06:14:12;;;;;;;9.65;3.60;;;12.60;99.90;;;;;;5086243;28;20417;-58
2022/06/04 06:16:43;;;;;;;8.20;3.55;;;12.60;99.90;;;;;;5068876;28;20059;-62
2022/06/04 06:19:10;;;;;;;5.70;3.60;;;12.60;99.90;;;;;;5067787;28;20113;-67
2022/06/04 06:21:36;;;;;;;7.35;3.40;;;12.70;99.90;;;;;;5069011;28;20040;-57
2022/06/04 06:24:04;;;;;;;7.85;3.58;;;12.80;99.90;;;;;;5068021;28;20048;-58
2022/06/04 06:26:34;;;;;;;7.25;3.30;;;13.00;99.90;;;;;;5068483;28;20398;-67
2022/06/04 06:29:03;;;;;;;7.43;3.20;;;13.20;99.90;;;;;;5068080;28;20052;-58
2022/06/04 06:31:31;;;;;;;5.05;3.10;;;13.30;99.90;;;;;;5085264;28;20045;-60
2022/06/04 06:33:57;;;;;;;4.03;2.85;;;13.30;99.90;;;;;;5086408;28;20490;-64
2022/06/04 06:36:23;;;;;;;5.53;3.25;;;13.30;99.90;;;;;;5068208;28;20043;-61
2022/06/04 06:38:49;;;;;;;8.05;3.35;;;13.50;99.90;;;;;;5068456;28;20125;-69
2022/06/04 06:41:17;;;;;;;7.93;3.58;;;13.60;99.90;;;;;;5068347;28;20051;-59
2022/06/04 06:43:49;;;;;;;6.55;3.40;;;13.90;99.90;;;;;;5068150;28;20048;-55
2022/06/04 06:46:32;;;;;;;7.50;3.28;;;14.00;99.90;;;;;;5068226;28;20040;-52
2022/06/04 06:49:10;;;;;;;6.82;3.65;;;13.90;99.90;;;;;;5086026;28;20109;-61
2022/06/04 06:51:39;;;;;;;8.65;2.97;;;13.90;99.90;;;;;;5068574;28;20079;-58
2022/06/04 06:54:05;;;;;;;4.38;3.08;;;14.20;99.90;;;;;;5067426;28;20056;-58
2022/06/04 06:56:38;;;;;;;3.85;3.03;;;14.10;99.90;;;;;;5085389;28;20056;-57
2022/06/04 06:59:04;;;;;;;9.90;3.28;;;14.10;99.90;;;;;;5067818;28;20502;-54
2022/06/04 07:01:31;;;;;;;7.15;3.25;;;14.00;99.90;;;;;;5086262;28;20127;-58
2022/06/04 07:03:57;;;;;;;9.57;3.20;;;14.00;99.90;;;;;;5067373;28;20154;-68
2022/06/04 07:06:30;;;;;;;6.72;3.38;;;14.00;99.90;;;;;;5051125;28;20673;-57
2022/06/04 07:08:56;;;;;;;5.57;3.10;;;14.10;99.90;;;;;;5085617;28;20044;-60
2022/06/04 07:11:21;;;;;;;6.78;2.92;;;14.20;99.90;;;;;;5086199;28;20043;-62
2022/06/04 07:13:47;;;;;;;5.32;3.15;;;14.40;99.90;;;;;;5086088;28;20044;-60
2022/06/04 07:16:13;;;;;;;4.57;3.25;;;14.50;99.90;;;;;;5085618;28;20447;-64
2022/06/04 07:18:38;;;;;;;3.83;2.67;;;14.70;99.90;;;;;;5085886;28;20059;-58
2022/06/04 07:21:05;;;;;;;4.25;2.47;;;14.70;99.30;;;;;;5067518;28;20394;-55
2022/06/04 07:23:34;;;;;;;7.25;3.00;;;14.70;98.90;;;;;;5085647;28;20052;-62
2022/06/04 07:26:01;;;;;;;5.23;2.40;;;14.90;98.60;;;;;;5085997;28;20403;-60
2022/06/04 07:28:26;;;;;;;4.78;2.58;;;15.00;93.20;;;;;;5085955;28;20047;-60
2022/06/04 07:30:53;;;;;;;7.88;2.03;;;15.20;97.30;;;;;;5050983;28;20048;-62
2022/06/04 07:33:19;;;;;;;5.28;2.38;;;15.40;94.10;;;;;;5067694;28;20040;-67
2022/06/04 07:35:50;;;;;;;4.68;2.40;;;15.50;90.70;;;;;;5067281;28;20559;-66
2022/06/04 07:38:16;;;;;;;4.43;2.60;;;15.50;93.80;;;;;;5081423;28;20040;-57
2022/06/04 07:40:43;;;;;;;2.65;2.40;;;15.50;91.50;;;;;;5080608;28;20094;-59
2022/06/04 07:43:10;;;;;;;3.88;2.50;;;15.50;92.70;;;;;;5063396;28;20138;-61
2022/06/04 07:45:36;;;;;;;4.38;2.55;;;15.20;91.10;;;;;;5085030;28;20048;-59
2022/06/04 07:48:03;;;;;;;5.43;2.53;;;15.20;94.90;;;;;;5082132;28;20081;-57
2022/06/04 07:50:30;;;;;;;4.57;1.83;;;15.50;91.80;;;;;;5060641;28;20143;-65
2022/06/04 07:52:59;;;;;;;4.05;2.30;;;15.80;92.90;;;;;;5067321;28;20072;-55
2022/06/04 07:55:26;;;;;;;5.05;2.10;;;15.90;80.10;;;;;;5047549;28;20078;-67
2022/06/04 07:57:52;;;;;;;3.83;2.28;;;16.20;86.10;;;;;;5083528;28;20032;-57
2022/06/04 08:00:22;;;;;;;2.65;2.17;;;16.40;81.10;;;;;;5067412;28;20074;-59
2022/06/04 08:02:48;;;;;;;4.28;2.13;;;16.60;87.80;;;;;;5083942;28;20060;-60
2022/06/04 08:05:14;;;;;;;6.90;2.33;;;16.90;73.90;;;;;;5063060;28;20058;-66
2022/06/04 08:07:41;;;;;;;1.92;1.70;;;16.90;73.80;;;;;;5079375;28;20498;-57
2022/06/04 08:10:09;;;;;;;4.93;2.50;;;16.80;68.80;;;;;;5069799;28;20048;-54
2022/06/04 08:12:43;;;;;;;1.98;1.70;;;16.70;71.50;;;;;;5071032;28;20397;-59
2022/06/04 08:15:09;;;;;;;2.97;1.85;;;16.60;71.60;;;;;;5088276;28;20044;-55
2022/06/04 08:17:35;;;;;;;7.25;1.73;;;17.00;78.10;;;;;;5071037;28;20040;-57
2022/06/04 08:20:01;;;;;;;5.15;1.88;;;17.10;68.10;;;;;;5086371;28;20041;-64
2022/06/04 08:22:26;;;;;;;3.20;2.08;;;17.40;75.40;;;;;;5068631;28;20036;-64
2022/06/04 08:24:52;;;;;;;2.53;2.00;;;17.80;71.00;;;;;;5084432;28;20601;-62
2022/06/04 08:27:18;;;;;;;4.78;1.90;;;17.90;55.50;;;;;;5067656;28;20105;-59
2022/06/04 08:29:44;;;;;;;3.90;1.83;;;17.60;53.80;;;;;;5067456;28;20036;-55
2022/06/04 08:32:12;;;;;;;6.15;2.05;;;17.00;54.90;;;;;;5085744;28;20044;-58
2022/06/04 08:34:37;;;;;;;1.80;1.50;;;16.80;70.00;;;;;;5085616;28;20387;-64
2022/06/04 08:37:04;;;;;;;3.90;1.80;;;16.90;72.10;;;;;;5083823;28;20069;-62
2022/06/04 08:39:30;;;;;;;4.85;2.13;;;17.30;69.30;;;;;;5064131;28;20048;-63
2022/06/04 08:42:05;;;;;;;7.80;2.17;;;17.50;65.70;;;;;;5081739;28;20089;-55
2022/06/04 08:44:35;;;;;;;2.83;2.00;;;17.80;67.30;;;;;;5086181;28;20052;-59
2022/06/04 08:47:07;;;;;;;4.63;1.98;;;17.70;61.80;;;;;;5083117;28;20485;-62
2022/06/04 08:49:48;;;;;;;2.50;1.50;;;17.70;63.80;;;;;;5086421;28;20114;-69
2022/06/04 08:52:26;;;;;;;3.58;1.70;;;17.50;51.40;;;;;;5080101;28;20478;-59
2022/06/04 08:57:46;;;;;;;3.03;1.67;;;17.70;56.70;;;;;;5078763;28;20134;-63
2022/06/04 09:00:29;;;;;;;2.38;1.88;;;17.40;52.60;;;;;;5084569;28;20036;-55
2022/06/04 09:03:17;;;;;;;4.90;1.67;;;17.40;61.90;;;;;;5086945;28;20048;-55
2022/06/04 09:05:58;;;;;;;3.20;1.80;;;17.60;59.50;;;;;;5077567;28;20032;-61
2022/06/04 09:08:48;;;;;;;6.22;2.05;;;17.80;61.60;;;;;;5083874;28;20044;-61
2022/06/04 09:11:29;;;;;;;1.80;1.70;;;17.80;51.50;;;;;;5086725;28;20055;-61
2022/06/04 09:13:57;;;;;;;3.00;1.70;;;18.00;60.80;;;;;;5088290;28;20510;-61
2022/06/04 09:16:28;;;;;;;2.77;1.67;;;18.00;49.80;;;;;;5073593;28;20075;-61
2022/06/04 09:18:59;;;;;;;5.18;1.80;;;17.80;46.40;;;;;;5075581;28;20044;-62
2022/06/04 09:21:31;;;;;;;8.73;2.25;;;17.30;45.50;;;;;;5084948;28;20682;-64
2022/06/04 09:23:58;;;;;;;5.15;2.08;;;17.10;52.90;;;;;;5069456;28;20135;-65
2022/06/04 09:26:42;;;;;;;4.55;2.20;;;17.00;67.30;;;;;;5058506;28;20044;-62
2022/06/04 09:29:48;;;;;;;3.60;2.13;;;17.00;59.40;;;;;;5064847;28;20062;-61
2022/06/04 09:32:44;;;;;;;5.15;2.38;;;16.90;60.90;;;;;;5083953;28;20044;-59
2022/06/04 09:35:15;;;;;;;3.85;1.88;;;17.00;69.40;;;;;;5067647;28;20140;-62
2022/06/04 09:37:43;;;;;;;9.85;2.25;;;17.00;66.70;;;;;;5085369;28;20124;-69
2022/06/04 09:40:24;;;;;;;3.90;2.20;;;17.10;74.10;;;;;;5056952;28;20081;-61
2022/06/04 09:42:51;;;;;;;2.05;1.80;;;17.20;61.70;;;;;;5074643;28;20078;-67
2022/06/04 09:45:27;;;;;;;3.17;1.90;;;17.10;60.20;;;;;;5058418;28;20243;-57
2022/06/04 09:47:58;;;;;;;2.33;1.42;;;17.20;62.20;;;;;;5062669;28;20059;-66
2022/06/04 09:50:29;;;;;;;3.67;1.60;;;17.20;54.30;;;;;;5082306;28;20468;-59
2022/06/04 09:53:22;;;;;;;2.80;2.00;;;17.20;50.00;;;;;;5087246;28;20138;-64
2022/06/04 09:56:08;;;;;;;3.58;1.88;;;17.20;53.00;;;;;;5057707;28;20055;-65
2022/06/04 09:58:39;;;;;;;3.80;1.80;;;17.20;57.50;;;;;;5068783;28;20047;-61
2022/06/04 10:01:08;;;;;;;3.75;1.70;;;17.20;64.70;;;;;;5084708;28;20044;-61
2022/06/04 10:03:37;;;;;;;3.40;1.73;;;17.50;64.20;;;;;;5086609;28;20090;-67
2022/06/04 10:06:05;;;;;;;3.80;1.83;;;17.70;67.40;;;;;;5081508;28;20127;-61
2022/06/04 10:09:54;;;;;;;4.28;1.90;;;17.90;60.00;;;;;;5081366;28;20532;-64
2022/06/04 10:11:21;;;;;;;5.80;2.10;;;17.90;60.70;;;;;;5073341;28;20546;-64
2022/06/04 10:13:49;;;;;;;5.80;2.30;;;17.60;56.30;;;;;;5075814;28;20048;-66
2022/06/04 10:16:25;;;;;;;3.25;2.10;;;17.50;71.70;;;;;;5067185;28;20347;-59
2022/06/04 10:19:13;;;;;;;4.38;1.75;;;17.80;60.30;;;;;;5068708;28;20051;-58
2022/06/04 10:21:41;;;;;;;2.53;1.50;;;17.80;56.90;;;;;;5055045;28;20078;-68
2022/06/04 10:24:21;;;;;;;3.40;2.03;;;17.60;64.00;;;;;;5086627;28;20043;-62
2022/06/04 10:27:03;;;;;;;3.88;1.85;;;17.60;71.00;;;;;;5073876;28;20486;-60
2022/06/04 10:29:28;;;;;;;4.78;2.00;;;17.50;61.00;;;;;;5085947;28;20089;-62
2022/06/04 10:32:31;;;;;;;2.78;1.75;;;17.40;61.40;;;;;;5083950;28;20048;-57
2022/06/04 10:35:08;;;;;;;2.50;1.73;;;17.50;74.30;;;;;;5083176;28;20486;-64
2022/06/04 10:38:11;;;;;;;5.30;2.47;;;17.50;67.30;;;;;;5066807;28;20534;-59
2022/06/04 10:41:04;;;;;;;2.38;1.95;;;17.50;63.60;;;;;;5083418;28;20051;-60
2022/06/04 10:44:07;;;;;;;4.82;1.98;;;17.40;66.50;;;;;;5081091;28;20064;-58
2022/06/04 10:46:33;;;;;;;2.47;1.63;;;17.10;65.10;;;;;;5065265;28;20048;-62
2022/06/04 10:49:35;;;;;;;3.70;2.17;;;17.10;71.90;;;;;;5085690;28;20054;-63
2022/06/04 10:52:24;;;;;;;5.03;1.95;;;17.00;67.80;;;;;;5064508;28;20505;-63
2022/06/04 10:55:04;;;;;;;3.83;1.60;;;16.90;74.40;;;;;;5081600;28;20379;-56
2022/06/04 10:57:33;;;;;;;4.55;2.15;;;17.00;70.50;;;;;;5081782;28;20083;-60
2022/06/04 11:00:18;;;;;;;5.20;1.88;;;17.30;84.60;;;;;;5082247;28;20119;-63
2022/06/04 11:02:44;;;;;;;5.63;1.90;;;17.50;78.20;;;;;;5068405;28;20066;-62
2022/06/04 11:05:22;;;;;;;5.32;1.60;;;17.60;63.80;;;;;;5084387;28;20052;-65
2022/06/04 11:08:09;;;;;;;4.90;2.45;;;17.60;58.70;;;;;;5085688;28;20092;-66
2022/06/04 11:10:45;;;;;;;4.85;2.20;;;17.50;57.70;;;;;;5084733;28;20052;-62
2022/06/04 11:13:32;;;;;;;4.13;2.10;;;17.30;57.80;;;;;;5085682;28;20079;-57
2022/06/04 11:16:04;;;;;;;8.15;2.28;;;17.20;68.20;;;;;;5082185;28;20105;-58
2022/06/04 11:18:40;;;;;;;4.38;2.05;;;17.30;75.70;;;;;;5083759;28;20043;-57
2022/06/04 11:21:32;;;;;;;4.07;1.90;;;17.50;69.00;;;;;;5083327;28;20051;-65
2022/06/04 11:24:03;;;;;;;4.57;1.90;;;17.30;69.00;;;;;;5042580;28;20456;-58
2022/06/04 11:26:38;;;;;;;5.43;2.03;;;17.20;74.60;;;;;;5081500;28;20056;-68
2022/06/04 11:29:05;;;;;;;2.80;1.90;;;17.20;65.30;;;;;;5082887;28;20520;-57
2022/06/04 11:32:08;;;;;;;3.38;1.83;;;16.90;64.70;;;;;;5064127;28;20044;-60
2022/06/04 11:34:40;;;;;;;4.68;2.38;;;16.70;73.70;;;;;;5063618;28;20124;-62
2022/06/04 11:37:19;;;;;;;3.78;2.15;;;16.80;71.20;;;;;;5081832;28;20083;-59
2022/06/04 11:40:08;;;;;;;4.00;2.10;;;17.00;71.80;;;;;;5083727;28;20044;-67
2022/06/04 11:42:49;;;;;;;4.65;1.48;;;16.90;71.20;;;;;;5084642;28;20044;-61
2022/06/04 11:45:33;;;;;;;4.22;2.00;;;16.90;78.30;;;;;;5087423;28;20047;-61
2022/06/04 11:48:08;;;;;;;19.23;1.88;;;17.00;69.20;;;;;;5066298;28;20043;-64
2022/06/04 11:50:46;;;;;;;5.72;1.88;;;17.20;71.10;;;;;;5069682;28;20048;-62
2022/06/04 11:53:32;;;;;;;5.75;2.00;;;17.20;66.80;;;;;;5068523;28;20056;-61
2022/06/04 11:56:05;;;;;;;3.17;1.25;;;17.20;59.40;;;;;;5088850;28;20047;-59
2022/06/04 11:58:53;;;;;;;2.78;2.03;;;17.20;63.30;;;;;;5087160;28;20032;-64
2022/06/04 12:01:30;;;;;;;5.60;1.70;;;17.30;71.80;;;;;;5088923;28;20047;-63
2022/06/04 12:04:12;;;;;;;5.43;1.92;;;17.40;64.60;;;;;;5075070;28;20032;-61
2022/06/04 12:06:47;;;;;;;3.95;1.95;;;17.30;66.80;;;;;;5065431;28;20402;-68
2022/06/04 12:09:22;;;;;;;5.55;2.22;;;17.10;68.20;;;;;;5084890;28;20044;-66
2022/06/04 12:11:54;;;;;;;6.43;1.98;;;17.30;66.70;;;;;;5061836;28;20056;-64
2022/06/04 12:14:53;;;;;;;3.60;1.85;;;17.50;75.30;;;;;;5064460;28;20044;-62
2022/06/04 12:17:31;;;;;;;8.05;2.33;;;17.50;67.20;;;;;;5089188;28;20127;-64
2022/06/04 12:26:28;;;;;;;;;;;17.60;80.90;;;;;;5089324;28;20047;-60
2022/06/04 12:28:55;;;;;;;5.88;2.03;;;17.80;71.60;;;;;;5087477;28;19942;-60
2022/06/04 12:31:34;;;;;;;6.22;1.95;;;17.90;67.60;;;;;;5070448;28;20044;-68
2022/06/04 12:34:01;;;;;;;5.25;2.17;;;17.60;72.50;;;;;;5088555;28;20047;-62
2022/06/04 12:36:32;;;;;;;9.43;2.72;;;17.40;67.50;;;;;;5087919;28;20077;-60
2022/06/04 12:39:23;;;;;;;9.15;2.65;;;17.10;73.20;;;;;;5086890;28;20117;-63
2022/06/04 12:41:55;;;;;;;4.72;2.30;;;17.10;73.90;;;;;;5088729;28;20554;-59
2022/06/04 12:44:42;;;;;;;6.32;2.45;;;17.00;70.40;;;;;;5088158;28;20494;-63
2022/06/04 12:47:38;;;;;;;9.65;2.28;;;16.80;77.30;;;;;;5058735;28;20086;-59
2022/06/04 12:50:16;;;;;;;6.05;2.30;;;16.80;80.90;;;;;;5067223;28;20055;-59
2022/06/04 12:53:14;;;;;;;8.70;2.40;;;16.90;80.10;;;;;;5086195;28;20147;-58
2022/06/04 12:55:53;;;;;;;5.67;2.50;;;17.00;76.10;;;;;;5074094;28;20055;-63
2022/06/04 12:58:31;;;;;;;8.33;2.50;;;16.90;79.50;;;;;;5054050;28;20141;-55
2022/06/04 13:01:05;;;;;;;5.57;2.10;;;17.00;84.40;;;;;;5083152;28;20305;-66
2022/06/04 13:03:41;;;;;;;4.90;2.20;;;17.30;84.00;;;;;;5087542;28;20081;-61
2022/06/04 13:06:13;;;;;;;7.80;2.10;;;17.30;70.00;;;;;;5088251;28;20036;-57
2022/06/04 13:08:42;;;;;;;4.38;2.08;;;17.20;68.20;;;;;;5087682;28;20510;-61
2022/06/04 13:11:19;;;;;;;;;;;17.20;64.00;;;;;;5087602;28;20058;-60
2022/06/04 13:13:52;;;;;;;7.95;2.17;;;17.20;68.00;;;;;;5069359;28;19935;-58
2022/06/04 13:16:24;;;;;;;3.50;2.13;;;17.20;73.40;;;;;;5087894;28;20402;-64
2022/06/04 13:19:11;;;;;;;5.18;2.05;;;17.30;73.30;;;;;;5087553;28;20076;-62
2022/06/04 13:21:40;;;;;;;6.68;1.98;;;17.30;69.90;;;;;;5078126;28;20121;-62
2022/06/04 13:24:16;;;;;;;4.72;1.90;;;17.20;76.00;;;;;;5082256;28;20054;-62
2022/06/04 13:26:52;;;;;;;4.70;2.10;;;17.30;71.40;;;;;;5079880;28;20101;-64
2022/06/04 13:29:33;;;;;;;3.78;2.17;;;17.40;80.60;;;;;;5064275;28;20056;-63
2022/06/04 13:32:18;;;;;;;3.72;1.70;;;17.50;73.90;;;;;;5085527;28;20040;-59
2022/06/04 13:34:44;;;;;;;4.75;2.45;;;17.50;71.30;;;;;;5086496;28;20044;-57